createdAt,value
2019-03-20T00:01:27.869Z,37.08
2019-03-20T00:03:56.140Z,38.00
2019-03-20T00:06:24.402Z,37.08
2019-03-20T00:08:52.630Z,37.46
2019-03-20T00:11:20.930Z,37.44
2019-03-20T00:13:49.156Z,37.43
2019-03-20T00:16:17.423Z,37.18
2019-03-20T00:18:45.745Z,37.70
2019-03-20T00:21:13.975Z,37.33
2019-03-20T00:23:42.223Z,38.54
2019-03-20T00:26:10.448Z,37.51
2019-03-20T00:28:38.644Z,37.91
2019-03-20T00:31:06.929Z,37.33
2019-03-20T00:33:35.131Z,38.06
2019-03-20T00:36:03.394Z,37.21
2019-03-20T00:38:31.632Z,37.61
2019-03-20T00:40:59.846Z,37.85
2019-03-20T00:43:28.057Z,37.07
2019-03-20T00:45:56.341Z,36.85
2019-03-20T00:48:24.529Z,36.66
2019-03-20T00:50:52.787Z,37.55
2019-03-20T00:53:21.025Z,37.66
2019-03-20T00:55:49.173Z,37.18
2019-03-20T00:58:17.388Z,37.94
2019-03-20T01:00:45.599Z,37.66
2019-03-20T01:03:13.833Z,38.28
2019-03-20T01:05:42.055Z,37.60
2019-03-20T01:08:10.288Z,37.49
2019-03-20T01:10:38.480Z,37.72
2019-03-20T01:13:06.740Z,37.95
2019-03-20T01:15:34.993Z,37.06
2019-03-20T01:18:03.227Z,36.75
2019-03-20T01:20:31.464Z,37.45
2019-03-20T01:22:59.695Z,37.30
2019-03-20T01:25:27.977Z,36.73
2019-03-20T01:27:56.253Z,37.28
2019-03-20T01:30:34.389Z,36.35
2019-03-20T01:33:03.206Z,36.93
2019-03-20T01:35:31.406Z,38.14
2019-03-20T01:37:59.610Z,36.89
2019-03-20T01:40:27.862Z,37.60
2019-03-20T01:42:56.024Z,39.17
2019-03-20T01:45:24.334Z,37.77
2019-03-20T01:47:52.627Z,38.61
2019-03-20T01:50:20.843Z,36.50
2019-03-20T01:52:49.095Z,37.32
2019-03-20T01:55:17.317Z,36.35
2019-03-20T01:57:45.668Z,36.85
2019-03-20T02:00:13.892Z,35.52
2019-03-20T02:02:42.198Z,37.75
2019-03-20T02:05:10.449Z,37.86
2019-03-20T02:07:38.591Z,38.12
2019-03-20T02:10:07.216Z,37.03
2019-03-20T02:12:35.394Z,37.61
2019-03-20T02:15:03.660Z,36.71
2019-03-20T02:17:31.830Z,37.94
2019-03-20T02:20:00.045Z,38.06
2019-03-20T02:22:28.280Z,39.56
2019-03-20T02:24:56.444Z,36.88
2019-03-20T02:27:24.758Z,37.14
2019-03-20T02:29:52.967Z,37.81
2019-03-20T02:32:21.179Z,37.87
2019-03-20T02:34:49.358Z,37.36
2019-03-20T02:37:17.606Z,37.26
2019-03-20T02:39:45.861Z,37.25
2019-03-20T02:42:14.088Z,36.34
2019-03-20T02:44:42.267Z,38.22
2019-03-20T02:47:10.572Z,37.24
2019-03-20T02:49:38.828Z,37.65
2019-03-20T02:52:06.998Z,37.37
2019-03-20T02:54:35.193Z,38.45
2019-03-20T02:57:03.385Z,37.43
2019-03-20T02:59:31.619Z,37.36
2019-03-20T03:01:59.805Z,38.14
2019-03-20T03:04:28.059Z,37.66
2019-03-20T03:06:56.286Z,37.58
2019-03-20T03:09:24.500Z,37.42
2019-03-20T03:11:52.679Z,37.40
2019-03-20T03:14:20.969Z,37.75
2019-03-20T03:16:49.268Z,37.22
2019-03-20T03:19:17.496Z,37.49
2019-03-20T03:21:45.706Z,38.60
2019-03-20T03:24:13.922Z,37.49
2019-03-20T03:26:42.180Z,37.55
2019-03-20T03:29:10.512Z,37.42
2019-03-20T03:31:38.746Z,38.43
2019-03-20T03:34:06.977Z,36.97
2019-03-20T03:36:35.161Z,37.24
2019-03-20T03:39:04.398Z,38.95
2019-03-20T03:41:32.576Z,37.53
2019-03-20T03:44:00.854Z,38.75
2019-03-20T03:46:29.077Z,37.05
2019-03-20T03:48:57.288Z,37.73
2019-03-20T03:51:25.557Z,38.92
2019-03-20T03:53:53.767Z,38.00
2019-03-20T03:56:22.047Z,37.64
2019-03-20T03:58:50.274Z,36.94
2019-03-20T04:01:18.486Z,37.27
2019-03-20T04:03:46.666Z,38.12
2019-03-20T04:06:14.888Z,38.72
2019-03-20T04:08:43.126Z,36.85
2019-03-20T04:11:11.332Z,36.82
2019-03-20T04:13:39.570Z,37.18
2019-03-20T04:16:07.838Z,36.98
2019-03-20T04:18:36.079Z,37.49
2019-03-20T04:21:04.299Z,37.54
2019-03-20T04:23:32.509Z,37.87
2019-03-20T04:26:00.713Z,38.39
2019-03-20T04:28:28.985Z,37.73
2019-03-20T04:30:57.260Z,37.35
2019-03-20T04:33:25.458Z,37.40
2019-03-20T04:35:53.840Z,38.22
2019-03-20T04:38:22.065Z,37.50
2019-03-20T04:40:50.353Z,37.33
2019-03-20T04:43:18.795Z,37.32
2019-03-20T04:45:47.009Z,38.36
2019-03-20T04:48:15.234Z,37.08
2019-03-20T04:50:43.401Z,37.65
2019-03-20T04:53:11.695Z,36.70
2019-03-20T04:55:39.910Z,37.39
2019-03-20T04:58:08.179Z,38.30
2019-03-20T05:00:36.376Z,37.67
2019-03-20T05:03:04.673Z,37.54
2019-03-20T05:05:32.835Z,37.76
2019-03-20T05:08:01.028Z,38.94
2019-03-20T05:10:29.200Z,37.41
2019-03-20T05:12:57.416Z,38.70
2019-03-20T05:15:25.630Z,37.16
2019-03-20T05:17:53.837Z,36.92
2019-03-20T05:20:21.993Z,39.21
2019-03-20T05:22:50.234Z,37.97
2019-03-20T05:25:18.376Z,37.90
2019-03-20T05:27:46.559Z,37.69
2019-03-20T05:30:14.724Z,38.79
2019-03-20T05:32:43.012Z,37.81
2019-03-20T05:35:11.137Z,38.01
2019-03-20T05:37:39.348Z,37.88
2019-03-20T05:40:08.163Z,38.23
2019-03-20T05:42:36.355Z,38.06
2019-03-20T05:45:04.989Z,38.65
2019-03-20T05:47:33.176Z,37.51
2019-03-20T05:50:01.378Z,37.24
2019-03-20T05:52:29.642Z,37.40
2019-03-20T05:54:57.797Z,39.21
2019-03-20T05:57:26.092Z,39.05
2019-03-20T05:59:54.293Z,38.88
2019-03-20T06:02:22.536Z,38.20
2019-03-20T06:04:50.760Z,36.87
2019-03-20T06:07:21.733Z,37.92
2019-03-20T06:09:48.801Z,37.96
2019-03-20T06:12:17.124Z,38.37
2019-03-20T06:14:45.401Z,37.37
2019-03-20T06:17:13.783Z,39.04
2019-03-20T06:19:42.137Z,38.18
2019-03-20T06:22:10.597Z,38.87
2019-03-20T06:24:38.935Z,37.81
2019-03-20T06:27:07.209Z,38.37
2019-03-20T06:29:35.499Z,38.32
2019-03-20T06:32:03.712Z,37.84
2019-03-20T06:34:31.899Z,38.11
2019-03-20T06:37:00.125Z,37.58
2019-03-20T06:39:28.288Z,37.98
2019-03-20T06:41:56.500Z,38.29
2019-03-20T06:44:24.799Z,38.10
2019-03-20T06:46:52.976Z,39.03
2019-03-20T06:49:21.123Z,38.31
2019-03-20T06:51:49.386Z,38.63
2019-03-20T06:54:17.599Z,39.26
2019-03-20T06:56:45.851Z,39.74
2019-03-20T06:59:26.719Z,39.07
2019-03-20T07:01:54.888Z,38.56
2019-03-20T07:04:32.488Z,39.17
2019-03-20T07:07:11.955Z,38.72
2019-03-20T07:09:42.470Z,38.80
2019-03-20T07:12:10.753Z,39.31
2019-03-20T07:14:38.925Z,40.65
2019-03-20T07:17:07.197Z,39.37
2019-03-20T07:19:35.409Z,39.52
2019-03-20T07:22:03.603Z,40.13
2019-03-20T07:24:31.831Z,40.72
2019-03-20T07:27:00.028Z,41.16
2019-03-20T07:29:28.238Z,40.17
2019-03-20T07:31:56.462Z,40.86
2019-03-20T07:34:24.608Z,40.65
2019-03-20T07:36:52.885Z,41.48
2019-03-20T07:39:21.214Z,41.22
2019-03-20T07:41:49.391Z,40.75
2019-03-20T07:44:17.518Z,40.55
2019-03-20T07:46:45.667Z,40.24
2019-03-20T07:49:13.827Z,40.18
2019-03-20T07:51:41.960Z,40.84
2019-03-20T07:54:10.105Z,39.98
2019-03-20T07:56:38.239Z,41.31
2019-03-20T07:59:06.392Z,41.12
2019-03-20T08:01:34.523Z,40.74
2019-03-20T08:04:02.763Z,40.84
2019-03-20T08:06:30.880Z,40.79
2019-03-20T08:08:59.121Z,40.07
2019-03-20T08:11:27.258Z,40.95
2019-03-20T08:13:55.400Z,40.42
2019-03-20T08:16:23.555Z,39.02
2019-03-20T08:18:51.697Z,40.37
2019-03-20T08:21:19.824Z,39.80
2019-03-20T08:23:47.960Z,39.41
2019-03-20T08:26:16.101Z,39.72
2019-03-20T08:28:44.250Z,40.60
2019-03-20T08:31:12.388Z,39.49
2019-03-20T08:33:40.517Z,39.46
2019-03-20T08:36:08.657Z,40.12
2019-03-20T08:38:36.789Z,40.22
2019-03-20T08:41:04.974Z,40.83
2019-03-20T08:43:33.193Z,40.18
2019-03-20T08:46:01.409Z,40.38
2019-03-20T08:48:29.575Z,40.15
2019-03-20T08:50:57.772Z,39.71
2019-03-20T08:53:25.917Z,40.26
2019-03-20T08:55:54.089Z,40.62
2019-03-20T08:58:37.601Z,39.91
2019-03-20T09:01:05.765Z,40.23
2019-03-20T09:03:33.904Z,39.86
2019-03-20T09:06:02.070Z,40.02
2019-03-20T09:08:30.228Z,40.45
2019-03-20T09:10:58.500Z,40.42
2019-03-20T09:13:26.667Z,40.21
2019-03-20T09:15:54.808Z,40.39
2019-03-20T09:18:23.024Z,40.44
2019-03-20T09:20:51.135Z,40.43
2019-03-20T09:23:19.288Z,39.82
2019-03-20T09:25:47.437Z,38.76
2019-03-20T09:28:15.574Z,38.82
2019-03-20T09:30:43.700Z,39.91
2019-03-20T09:33:11.833Z,39.78
2019-03-20T09:35:40.002Z,39.70
2019-03-20T09:38:08.200Z,38.92
2019-03-20T09:40:36.367Z,39.85
2019-03-20T09:43:04.518Z,39.68
2019-03-20T09:45:32.729Z,40.05
2019-03-20T09:48:00.875Z,40.07
2019-03-20T09:50:28.997Z,38.49
2019-03-20T09:52:57.169Z,40.17
2019-03-20T09:55:25.316Z,39.37
2019-03-20T09:57:53.545Z,39.30
2019-03-20T10:00:22.209Z,39.91
2019-03-20T10:02:50.346Z,39.45
2019-03-20T10:05:18.485Z,39.66
2019-03-20T10:07:46.631Z,39.44
2019-03-20T10:10:16.329Z,39.49
2019-03-20T10:12:44.567Z,39.81
2019-03-20T10:15:13.048Z,38.14
2019-03-20T10:17:41.227Z,39.26
2019-03-20T10:20:10.159Z,38.38
2019-03-20T10:22:39.089Z,39.58
2019-03-20T10:25:07.526Z,38.93
2019-03-20T10:27:35.705Z,38.94
2019-03-20T10:30:03.902Z,38.70
2019-03-20T10:32:32.089Z,39.39
2019-03-20T10:35:00.349Z,39.57
2019-03-20T10:37:28.625Z,39.49
2019-03-20T10:39:56.851Z,39.28
2019-03-20T10:42:25.055Z,39.44
2019-03-20T10:44:53.300Z,39.62
2019-03-20T10:47:21.525Z,39.06
2019-03-20T10:49:49.770Z,39.13
2019-03-20T10:52:17.981Z,39.18
2019-03-20T10:54:46.212Z,39.48
2019-03-20T10:57:14.440Z,38.65
2019-03-20T10:59:42.673Z,38.70
2019-03-20T11:02:10.881Z,39.01
2019-03-20T11:04:39.118Z,38.07
2019-03-20T11:07:07.392Z,39.55
2019-03-20T11:09:35.551Z,39.50
2019-03-20T11:12:03.817Z,39.07
2019-03-20T11:14:32.237Z,39.54
2019-03-20T11:17:00.531Z,39.05
2019-03-20T11:19:28.776Z,39.38
2019-03-20T11:21:57.012Z,39.51
2019-03-20T11:24:25.319Z,38.96
2019-03-20T11:26:53.602Z,39.02
2019-03-20T11:29:22.291Z,39.39
2019-03-20T11:31:50.941Z,37.54
2019-03-20T11:34:19.536Z,39.15
2019-03-20T11:36:48.192Z,39.60
2019-03-20T11:39:16.774Z,38.94
2019-03-20T11:41:45.196Z,39.15
2019-03-20T11:44:13.536Z,38.09
2019-03-20T11:46:42.290Z,39.57
2019-03-20T11:49:11.011Z,38.34
2019-03-20T11:51:39.523Z,38.95
2019-03-20T11:54:08.006Z,38.04
2019-03-20T11:56:36.446Z,39.07
2019-03-20T11:59:05.080Z,38.63
2019-03-20T12:01:33.355Z,39.41
2019-03-20T12:04:01.699Z,38.22
2019-03-20T12:06:29.952Z,38.73
2019-03-20T12:08:58.236Z,38.95
2019-03-20T12:11:26.552Z,39.41
2019-03-20T12:13:54.848Z,38.64
2019-03-20T12:16:23.263Z,38.01
2019-03-20T12:18:51.567Z,39.19
2019-03-20T12:21:19.837Z,38.63
2019-03-20T12:23:48.103Z,38.55
2019-03-20T12:26:16.385Z,39.57
2019-03-20T12:28:44.628Z,39.08
2019-03-20T12:31:12.909Z,38.84
2019-03-20T12:33:41.172Z,39.07
2019-03-20T12:36:09.465Z,39.52
2019-03-20T12:38:37.788Z,38.87
2019-03-20T12:41:06.429Z,38.54
2019-03-20T12:43:34.820Z,38.37
2019-03-20T12:46:03.083Z,37.97
2019-03-20T12:48:31.327Z,38.11
2019-03-20T12:50:59.692Z,39.52
2019-03-20T12:53:29.521Z,37.93
2019-03-20T12:55:57.817Z,38.45
2019-03-20T12:58:26.098Z,38.71
2019-03-20T13:00:54.650Z,39.23
2019-03-20T13:03:24.098Z,38.25
2019-03-20T13:05:52.528Z,39.06
2019-03-20T13:08:21.109Z,38.18
2019-03-20T13:10:49.734Z,38.35
2019-03-20T13:13:18.327Z,37.87
2019-03-20T13:15:46.924Z,38.42
2019-03-20T13:18:15.503Z,38.14
2019-03-20T13:20:44.064Z,38.13
2019-03-20T13:23:13.187Z,38.31
2019-03-20T13:25:41.799Z,37.56
2019-03-20T13:28:10.121Z,37.43
2019-03-20T13:30:42.472Z,37.90
2019-03-20T13:33:10.749Z,38.40
2019-03-20T13:35:39.012Z,39.03
2019-03-20T13:38:07.274Z,38.80
2019-03-20T13:40:35.553Z,37.34
2019-03-20T13:43:03.811Z,38.54
2019-03-20T13:45:32.052Z,37.43
2019-03-20T13:48:00.325Z,36.52
2019-03-20T13:50:28.813Z,37.46
2019-03-20T13:52:57.427Z,38.34
2019-03-20T13:55:26.046Z,37.45
2019-03-20T13:57:54.666Z,37.34
2019-03-20T14:00:23.078Z,38.61
2019-03-20T14:02:51.353Z,37.21
2019-03-20T14:05:19.700Z,37.27
2019-03-20T14:07:48.235Z,38.10
2019-03-20T14:10:25.173Z,37.64
2019-03-20T14:12:47.942Z,35.59
2019-03-20T14:15:16.745Z,38.86
2019-03-20T14:17:45.267Z,36.55
2019-03-20T14:20:14.958Z,38.46
2019-03-20T14:22:43.273Z,38.70
2019-03-20T14:25:11.611Z,37.21
2019-03-20T14:27:40.053Z,37.52
2019-03-20T14:30:11.030Z,37.49
2019-03-20T14:32:39.520Z,36.82
2019-03-20T14:35:08.520Z,35.89
2019-03-20T14:37:37.173Z,38.29
2019-03-20T14:40:05.896Z,38.47
2019-03-20T14:42:34.385Z,37.23
2019-03-20T14:45:03.081Z,38.78
2019-03-20T14:47:41.755Z,36.42
2019-03-20T14:50:02.073Z,38.40
2019-03-20T14:52:30.522Z,38.76
2019-03-20T14:54:58.912Z,38.00
2019-03-20T14:57:27.231Z,38.09
2019-03-20T14:59:55.664Z,38.08
2019-03-20T15:02:24.383Z,36.91
2019-03-20T15:04:52.960Z,37.64
2019-03-20T15:07:21.602Z,37.79
2019-03-20T15:09:50.057Z,37.36
2019-03-20T15:12:18.561Z,38.11
2019-03-20T15:14:46.920Z,37.92
2019-03-20T15:17:15.402Z,37.32
2019-03-20T15:19:44.093Z,37.41
2019-03-20T15:22:12.424Z,37.89
2019-03-20T15:24:40.826Z,37.94
2019-03-20T15:27:09.111Z,37.35
2019-03-20T15:29:37.394Z,37.58
2019-03-20T15:32:05.664Z,38.04
2019-03-20T15:34:33.922Z,37.88
2019-03-20T15:37:02.146Z,38.12
2019-03-20T15:39:30.383Z,37.21
2019-03-20T15:41:58.776Z,37.39
2019-03-20T15:44:26.995Z,38.44
2019-03-20T15:46:55.243Z,38.89
2019-03-20T15:49:23.512Z,38.35
2019-03-20T15:51:51.719Z,37.92
2019-03-20T15:54:19.956Z,38.52
2019-03-20T15:56:48.184Z,38.78
2019-03-20T15:59:16.504Z,37.78
2019-03-20T16:01:44.792Z,37.93
2019-03-20T16:04:13.057Z,38.53
2019-03-20T16:06:41.258Z,37.81
2019-03-20T16:09:09.829Z,37.74
2019-03-20T16:11:38.056Z,38.54
2019-03-20T16:14:06.274Z,37.49
2019-03-20T16:16:34.539Z,38.18
2019-03-20T16:19:02.803Z,37.15
2019-03-20T16:21:31.121Z,37.72
2019-03-20T16:23:59.372Z,38.02
2019-03-20T16:26:27.584Z,38.12
2019-03-20T16:28:55.791Z,38.06
2019-03-20T16:31:24.017Z,37.99
2019-03-20T16:33:52.223Z,38.25
2019-03-20T16:36:20.549Z,38.65
2019-03-20T16:38:48.884Z,36.91
2019-03-20T16:41:17.244Z,36.31
2019-03-20T16:43:45.591Z,37.43
2019-03-20T16:46:13.809Z,38.50
2019-03-20T16:48:42.014Z,38.05
2019-03-20T16:51:10.252Z,38.14
2019-03-20T16:53:38.499Z,37.62
2019-03-20T16:56:06.744Z,37.41
2019-03-20T16:58:34.946Z,38.12
2019-03-20T17:01:03.181Z,37.93
2019-03-20T17:03:31.482Z,38.64
2019-03-20T17:05:59.853Z,38.78
2019-03-20T17:08:28.271Z,37.00
2019-03-20T17:10:56.685Z,38.85
2019-03-20T17:13:25.222Z,37.92
2019-03-20T17:15:53.524Z,37.80
2019-03-20T17:18:21.863Z,37.90
2019-03-20T17:20:50.356Z,37.03
2019-03-20T17:23:18.945Z,37.75
2019-03-20T17:25:47.389Z,38.67
2019-03-20T17:28:15.849Z,37.99
2019-03-20T17:30:44.264Z,38.57
2019-03-20T17:33:12.591Z,37.84
2019-03-20T17:35:41.069Z,38.27
2019-03-20T17:38:09.412Z,37.90
2019-03-20T17:40:38.240Z,37.36
2019-03-20T17:43:06.725Z,36.48
2019-03-20T17:45:35.283Z,38.19
2019-03-20T17:48:04.383Z,36.74
2019-03-20T17:50:32.755Z,37.60
2019-03-20T17:53:01.262Z,37.94
2019-03-20T17:55:29.600Z,36.57
2019-03-20T17:57:57.815Z,36.96
2019-03-20T18:00:32.804Z,38.06
2019-03-20T18:03:01.018Z,36.99
2019-03-20T18:05:29.232Z,37.89
2019-03-20T18:07:57.442Z,37.86
2019-03-20T18:10:25.708Z,38.45
2019-03-20T18:12:53.915Z,37.67
2019-03-20T18:15:22.132Z,37.64
2019-03-20T18:17:50.347Z,37.74
2019-03-20T18:20:18.563Z,37.79
2019-03-20T18:22:46.768Z,36.57
2019-03-20T18:25:14.988Z,37.48
2019-03-20T18:27:43.215Z,37.02
2019-03-20T18:30:18.598Z,38.09
2019-03-20T18:32:46.795Z,38.00
2019-03-20T18:35:15.004Z,38.61
2019-03-20T18:37:43.525Z,38.43
2019-03-20T18:40:12.563Z,38.21
2019-03-20T18:42:40.710Z,38.05
2019-03-20T18:45:09.187Z,37.93
2019-03-20T18:47:37.330Z,36.92
2019-03-20T18:50:05.488Z,36.86
2019-03-20T18:52:33.685Z,37.05
2019-03-20T18:55:01.802Z,37.04
2019-03-20T18:57:30.071Z,37.85
2019-03-20T18:59:58.232Z,37.23
2019-03-20T19:02:26.399Z,38.69
2019-03-20T19:04:54.532Z,38.27
2019-03-20T19:07:22.689Z,38.04
2019-03-20T19:09:50.843Z,37.35
2019-03-20T19:12:18.973Z,37.54
2019-03-20T19:14:49.182Z,36.85
2019-03-20T19:17:17.418Z,37.52
2019-03-20T19:19:45.561Z,36.32
2019-03-20T19:22:13.693Z,37.95
2019-03-20T19:24:41.845Z,36.63
2019-03-20T19:27:09.967Z,36.95
2019-03-20T19:29:38.186Z,37.07
2019-03-20T19:32:06.317Z,38.26
2019-03-20T19:34:34.459Z,37.42
2019-03-20T19:37:02.591Z,36.52
2019-03-20T19:39:30.748Z,37.01
2019-03-20T19:41:58.881Z,37.54
2019-03-20T19:44:27.021Z,37.47
2019-03-20T19:46:55.227Z,36.77
2019-03-20T19:49:23.397Z,38.24
2019-03-20T19:51:51.542Z,36.87
2019-03-20T19:54:19.713Z,36.77
2019-03-20T19:56:47.882Z,36.16
2019-03-20T19:59:16.044Z,37.37
2019-03-20T20:01:44.189Z,35.94
2019-03-20T20:04:12.321Z,36.87
2019-03-20T20:06:40.558Z,36.01
2019-03-20T20:09:08.740Z,35.38
2019-03-20T20:11:36.942Z,37.59
2019-03-20T20:14:05.081Z,37.42
2019-03-20T20:16:33.261Z,37.34
2019-03-20T20:19:01.425Z,35.44
2019-03-20T20:21:29.585Z,35.21
2019-03-20T20:23:57.752Z,36.01
2019-03-20T20:26:25.928Z,37.31
2019-03-20T20:28:54.121Z,36.85
2019-03-20T20:31:22.280Z,37.55
2019-03-20T20:33:50.590Z,38.26
2019-03-20T20:36:18.801Z,38.21
2019-03-20T20:38:46.982Z,37.85
2019-03-20T20:41:15.213Z,36.70
2019-03-20T20:43:43.400Z,37.34
2019-03-20T20:46:11.631Z,37.52
2019-03-20T20:48:39.886Z,37.38
2019-03-20T20:51:08.044Z,37.99
2019-03-20T20:53:36.542Z,38.01
2019-03-20T20:56:04.755Z,36.63
2019-03-20T20:58:32.935Z,37.78
2019-03-20T21:01:01.137Z,36.64
2019-03-20T21:03:29.309Z,36.97
2019-03-20T21:05:57.502Z,35.64
2019-03-20T21:08:25.719Z,37.05
2019-03-20T21:10:53.947Z,35.11
2019-03-20T21:13:22.163Z,36.40
2019-03-20T21:15:51.803Z,37.25
2019-03-20T21:18:38.161Z,36.22
2019-03-20T21:21:06.610Z,37.15
2019-03-20T21:23:52.565Z,36.38
2019-03-20T21:26:21.028Z,37.54
2019-03-20T21:28:57.192Z,36.87
2019-03-20T21:31:27.630Z,35.63
2019-03-20T21:34:14.958Z,36.56
2019-03-20T21:36:59.614Z,36.75
2019-03-20T21:39:28.161Z,37.42
2019-03-20T21:42:14.394Z,35.68
2019-03-20T21:45:12.155Z,35.43
2019-03-20T21:47:39.514Z,36.84
2019-03-20T21:50:16.948Z,36.74
2019-03-20T21:52:45.391Z,37.33
2019-03-20T21:55:33.063Z,36.84
2019-03-20T21:58:04.400Z,36.63
2019-03-20T22:00:50.298Z,36.51
2019-03-20T22:03:18.733Z,36.21
2019-03-20T22:06:14.953Z,36.76
2019-03-20T22:08:43.403Z,37.21
2019-03-20T22:11:33.450Z,37.41
2019-03-20T22:14:04.584Z,38.10
2019-03-20T22:16:51.960Z,37.33
2019-03-20T22:19:22.564Z,36.29
2019-03-20T22:22:12.884Z,37.02
2019-03-20T22:25:03.423Z,36.21
2019-03-20T22:27:54.175Z,36.82
2019-03-20T22:30:22.631Z,36.09
2019-03-20T22:33:08.847Z,37.79
2019-03-20T22:35:48.521Z,36.94
2019-03-20T22:38:32.094Z,35.82
2019-03-20T22:41:18.309Z,36.83
2019-03-20T22:43:51.676Z,36.35
2019-03-20T22:46:38.962Z,36.09
2019-03-20T22:49:25.249Z,36.29
2019-03-20T22:52:03.637Z,35.82
2019-03-20T22:54:53.688Z,36.29
2019-03-20T22:57:30.630Z,37.26
2019-03-20T22:59:59.082Z,36.38
2019-03-20T23:02:45.614Z,36.24
2019-03-20T23:05:14.111Z,35.93
2019-03-20T23:07:42.582Z,36.80
2019-03-20T23:10:12.248Z,36.40
2019-03-20T23:12:40.789Z,36.85
2019-03-20T23:15:10.918Z,36.47
2019-03-20T23:17:39.396Z,36.57
2019-03-20T23:20:09.555Z,36.87
2019-03-20T23:22:38.007Z,36.82
2019-03-20T23:25:06.557Z,36.58
2019-03-20T23:27:35.245Z,36.64
2019-03-20T23:30:04.316Z,37.70
2019-03-20T23:32:32.728Z,36.84
2019-03-20T23:35:01.182Z,37.31
2019-03-20T23:37:29.590Z,37.40
2019-03-20T23:39:58.080Z,37.18
2019-03-20T23:42:26.780Z,36.10
2019-03-20T23:44:55.302Z,36.40
2019-03-20T23:47:32.660Z,35.93
2019-03-20T23:50:01.136Z,37.95
2019-03-20T23:52:29.664Z,37.02
2019-03-20T23:54:58.068Z,37.09
2019-03-20T23:57:26.455Z,37.51
2019-03-20T23:59:55.557Z,36.95
